Time;durP1;ratioP1;P1;durP2;ratioP2;P2;SDS_P1;SDS_P2;PMS_P1;PMS_P2;Temp;Humidity;BMP_temperature;BMP_pressure;BME280_temperature;BME280_humidity;BME280_pressure;Samples;Min_cycle;Max_cycle;Signal;HPM_P1;HPM_P2
2022/05/19 00:00:35;;;;;;;1.93;1.77;;;;;;;8.50;100.00;99650.97;4980843;28;20472;-60
2022/05/19 00:03:01;;;;;;;2.33;2.13;;;;;;;8.44;100.00;99650.97;4983306;28;20038;-59
2022/05/19 00:05:26;;;;;;;2.97;1.90;;;;;;;8.41;100.00;99635.59;4984034;28;20030;-61
2022/05/19 00:07:52;;;;;;;2.97;1.97;;;;;;;8.41;100.00;99646.66;4983762;28;20431;-60
2022/05/19 00:10:18;;;;;;;2.10;1.90;;;;;;;8.36;100.00;99642.41;4982247;28;20026;-60
2022/05/19 00:12:44;;;;;;;3.93;2.27;;;;;;;8.33;100.00;99642.34;4982715;28;20225;-60
2022/05/19 00:15:11;;;;;;;3.43;2.10;;;;;;;8.29;100.00;99646.59;4983779;28;20042;-60
2022/05/19 00:17:37;;;;;;;2.77;1.60;;;;;;;8.19;100.00;99644.78;4981148;28;20061;-60
2022/05/19 00:20:03;;;;;;;5.37;1.70;;;;;;;8.17;100.00;99647.34;4983028;28;20038;-61
2022/05/19 00:22:28;;;;;;;4.37;2.13;;;;;;;8.16;100.00;99637.97;4982159;28;20035;-59
2022/05/19 00:24:54;;;;;;;3.10;1.83;;;;;;;8.14;100.00;99639.69;4981786;28;20102;-61
2022/05/19 00:27:19;;;;;;;2.20;2.00;;;;;;;8.12;100.00;99637.94;4982416;28;20030;-62
2022/05/19 00:29:44;;;;;;;4.43;1.97;;;;;;;8.13;100.00;99627.75;4983073;28;20057;-62
2022/05/19 00:32:10;;;;;;;2.33;1.90;;;;;;;8.03;100.00;99631.06;4981887;28;20391;-58
2022/05/19 00:34:35;;;;;;;3.63;2.00;;;;;;;8.03;100.00;99625.97;4983324;28;20351;-59
2022/05/19 00:37:02;;;;;;;3.33;2.00;;;;;;;8.06;100.00;99625.13;4982599;28;20072;-61
2022/05/19 00:39:29;;;;;;;3.43;1.53;;;;;;;8.01;100.00;99620.00;4984181;28;20034;-60
2022/05/19 00:44:41;;;;;;;3.42;1.88;;;;;;;7.96;100.00;99629.31;4982775;28;20092;-60
2022/05/19 00:47:11;;;;;;;1.70;1.60;;;;;;;7.95;100.00;99617.38;4981276;28;20049;-61
2022/05/19 00:49:40;;;;;;;3.27;2.00;;;;;;;7.86;100.00;99616.47;4983030;28;20472;-60
2022/05/19 00:52:11;;;;;;;2.80;1.80;;;;;;;7.90;100.00;99611.38;4984504;28;20038;-61
2022/05/19 00:54:44;;;;;;;3.87;1.60;;;;;;;7.95;100.00;99614.84;4983425;28;20030;-61
2022/05/19 00:57:25;;;;;;;5.00;2.43;;;;;;;7.90;100.00;99610.53;4984229;28;20036;-61
2022/05/19 00:59:58;;;;;;;2.67;1.57;;;;;;;7.81;100.00;99612.16;4982414;28;20172;-61
2022/05/19 01:02:30;;;;;;;4.33;2.20;;;;;;;7.76;100.00;99607.91;4984149;28;20176;-61
2022/05/19 01:05:10;;;;;;;3.63;2.73;;;;;;;7.68;100.00;99601.88;4981425;28;20035;-61
2022/05/19 01:07:46;;;;;;;2.17;1.87;;;;;;;7.72;100.00;99598.50;4978581;28;20632;-61
2022/05/19 01:10:12;;;;;;;3.00;2.00;;;;;;;7.66;100.00;99603.53;4980440;28;20571;-61
2022/05/19 01:12:39;;;;;;;3.13;1.57;;;;;;;7.78;100.00;99601.09;4979150;28;20042;-62
2022/05/19 01:15:05;;;;;;;4.80;2.00;;;;;;;7.67;100.00;99607.81;4981700;28;20337;-61
2022/05/19 01:17:34;;;;;;;3.77;1.73;;;;;;;7.62;100.00;99601.81;4982085;28;20053;-61
2022/05/19 01:20:04;;;;;;;2.30;1.50;;;;;;;7.61;100.00;99605.19;4984034;28;20724;-61
2022/05/19 01:22:51;;;;;;;1.87;1.37;;;;;;;7.63;100.00;99596.72;4979920;28;20039;-61
2022/05/19 01:25:41;;;;;;;5.73;1.80;;;;;;;7.56;100.00;99606.84;4979227;28;20576;-61
2022/05/19 01:28:07;;;;;;;5.67;2.17;;;;;;;7.55;100.00;99611.13;4978470;28;20051;-61
2022/05/19 01:30:33;;;;;;;3.20;1.90;;;;;;;7.51;100.00;99616.19;4979561;28;20037;-61
2022/05/19 01:32:59;;;;;;;4.47;2.50;;;;;;;7.46;100.00;99598.28;4982438;28;20049;-61
2022/05/19 01:35:25;;;;;;;3.17;1.50;;;;;;;7.42;100.00;99604.22;4982917;28;20129;-61
2022/05/19 01:37:51;;;;;;;5.97;1.97;;;;;;;7.39;100.00;99608.41;4980577;28;20113;-61
2022/05/19 01:40:26;;;;;;;6.03;2.10;;;;;;;7.33;100.00;99599.00;4981246;28;20121;-61
2022/05/19 01:43:06;;;;;;;2.83;2.00;;;;;;;7.37;100.00;99595.66;4984518;28;20038;-61
2022/05/19 01:46:04;;;;;;;3.73;1.87;;;;;;;7.33;100.00;99597.31;4980644;28;20042;-60
2022/05/19 01:48:49;;;;;;;3.87;1.80;;;;;;;7.26;100.00;99595.53;4970079;28;20050;-59
2022/05/19 01:51:15;;;;;;;2.67;1.70;;;;;;;7.20;100.00;99599.72;4981795;28;20046;-61
2022/05/19 01:54:05;;;;;;;4.20;1.30;;;;;;;7.22;100.00;99601.44;4980518;28;20088;-60
2022/05/19 01:56:43;;;;;;;3.37;1.90;;;;;;;7.17;100.00;99594.59;4983803;28;20124;-60
2022/05/19 01:59:11;;;;;;;3.40;1.93;;;;;;;7.16;100.00;99598.84;4980910;28;20457;-60
2022/05/19 02:01:40;;;;;;;1.70;1.60;;;;;;;7.17;100.00;99597.16;4979823;28;20038;-60
2022/05/19 02:04:17;;;;;;;2.90;2.00;;;;;;;7.14;100.00;99594.56;4978780;28;20038;-60
2022/05/19 02:06:52;;;;;;;3.27;1.67;;;;;;;7.15;100.00;99586.94;4981314;28;20061;-60
2022/05/19 02:09:20;;;;;;;;;;;;;;;7.11;100.00;99590.28;4981161;28;20045;-60
2022/05/19 02:11:54;;;;;;;5.83;3.20;;;;;;;7.11;100.00;99587.75;4981263;28;19953;-61
2022/05/19 02:14:28;;;;;;;2.55;1.88;;;;;;;7.12;100.00;99592.00;4983268;28;20038;-60
2022/05/19 02:16:54;;;;;;;4.17;1.63;;;;;;;7.01;100.00;99583.38;4979013;28;20069;-59
2022/05/19 02:19:27;;;;;;;3.43;2.73;;;;;;;7.01;100.00;99591.03;4976751;28;20071;-60
2022/05/19 02:21:54;;;;;;;3.10;2.00;;;;;;;7.02;100.00;99592.75;4978874;28;20080;-58
2022/05/19 02:24:24;;;;;;;2.57;1.97;;;;;;;6.98;100.00;99602.88;4980542;28;20080;-58
2022/05/19 02:26:51;;;;;;;5.03;2.10;;;;;;;6.91;100.00;99596.88;4981449;28;20053;-58
2022/05/19 02:29:22;;;;;;;2.03;1.67;;;;;;;6.85;100.00;99589.16;4981398;28;20030;-59
2022/05/19 02:31:48;;;;;;;3.23;1.83;;;;;;;6.88;100.00;99586.63;4981091;28;20401;-59
2022/05/19 02:34:14;;;;;;;2.93;2.13;;;;;;;6.86;100.00;99586.63;4979153;28;20058;-60
2022/05/19 02:36:40;;;;;;;4.87;1.60;;;;;;;6.82;100.00;99587.44;4978214;28;20542;-56
2022/05/19 02:39:07;;;;;;;3.27;1.70;;;;;;;6.80;100.00;99581.44;4981076;28;20022;-59
2022/05/19 02:41:32;;;;;;;6.07;2.47;;;;;;;6.85;100.00;99584.06;4980503;28;20516;-58
2022/05/19 02:43:58;;;;;;;8.10;2.33;;;;;;;6.83;100.00;99580.66;4977056;28;20044;-57
2022/05/19 02:46:23;;;;;;;4.37;2.07;;;;;;;6.81;100.00;99584.88;4978189;28;20034;-58
2022/05/19 02:48:49;;;;;;;3.13;2.20;;;;;;;6.78;100.00;99585.69;4975767;28;20511;-57
2022/05/19 02:51:14;;;;;;;5.97;1.90;;;;;;;6.73;100.00;99581.38;4979629;28;20329;-59
2022/05/19 02:53:40;;;;;;;4.43;1.80;;;;;;;6.72;100.00;99579.66;4980591;28;20333;-60
2022/05/19 02:56:06;;;;;;;4.23;2.20;;;;;;;6.71;100.00;99577.94;4979371;28;20076;-60
2022/05/19 02:58:31;;;;;;;3.33;1.87;;;;;;;6.71;100.00;99576.25;4977568;28;20034;-59
2022/05/19 03:00:57;;;;;;;2.47;1.53;;;;;;;6.67;100.00;99571.97;5009155;28;20026;-60
2022/05/19 03:03:22;;;;;;;11.27;3.20;;;;;;;6.63;100.00;99571.91;4977557;28;20872;-57
2022/05/19 03:05:48;;;;;;;3.97;2.17;;;;;;;6.62;100.00;99573.59;4981642;28;20389;-59
2022/05/19 03:08:14;;;;;;;2.40;1.83;;;;;;;6.54;100.00;99577.75;4979683;28;20026;-58
2022/05/19 03:10:42;;;;;;;3.67;1.87;;;;;;;6.55;100.00;99568.41;4979220;28;20042;-56
2022/05/19 03:13:15;;;;;;;5.43;2.23;;;;;;;6.57;100.00;99574.38;4977178;28;20062;-55
2022/05/19 03:15:40;;;;;;;3.63;1.90;;;;;;;6.64;100.00;99571.94;4979829;28;20205;-61
2022/05/19 03:18:06;;;;;;;2.07;1.90;;;;;;;6.53;100.00;99559.91;4980069;28;20489;-56
2022/05/19 03:20:31;;;;;;;4.07;2.10;;;;;;;6.56;100.00;99568.44;4980066;28;20045;-54
2022/05/19 03:22:57;;;;;;;4.00;1.97;;;;;;;6.61;100.00;99577.00;4978168;28;20092;-60
2022/05/19 03:25:22;;;;;;;4.67;2.17;;;;;;;6.53;100.00;99565.88;4978232;28;20441;-59
2022/05/19 03:27:48;;;;;;;4.57;2.10;;;;;;;6.57;100.00;99564.19;4979461;28;20042;-60
2022/05/19 03:30:15;;;;;;;3.83;1.97;;;;;;;6.58;100.00;99555.69;4977980;28;20030;-61
2022/05/19 03:32:42;;;;;;;3.20;2.10;;;;;;;6.58;100.00;99554.00;4977232;28;20370;-62
2022/05/19 03:35:08;;;;;;;3.57;2.00;;;;;;;6.61;100.00;99555.75;4978676;28;20440;-62
2022/05/19 03:37:33;;;;;;;4.00;1.80;;;;;;;6.65;100.00;99550.72;4978891;28;20112;-62
2022/05/19 03:39:59;;;;;;;5.50;2.20;;;;;;;6.61;100.00;99550.66;4981425;28;20046;-61
2022/05/19 03:42:24;;;;;;;4.90;1.97;;;;;;;6.72;100.00;99560.13;4982794;28;20085;-62
2022/05/19 03:44:49;;;;;;;3.93;1.97;;;;;;;6.78;100.00;99554.25;4983635;28;20553;-62
2022/05/19 03:47:15;;;;;;;4.43;2.07;;;;;;;6.85;100.00;99551.78;4982709;28;20053;-62
2022/05/19 03:49:40;;;;;;;3.70;2.07;;;;;;;7.00;100.00;99552.78;4979933;28;20027;-62
2022/05/19 03:52:06;;;;;;;2.83;2.10;;;;;;;7.06;100.00;99546.03;4978127;28;20129;-62
2022/05/19 03:54:32;;;;;;;3.40;1.80;;;;;;;7.23;100.00;99559.81;4978930;28;20067;-63
2022/05/19 03:56:57;;;;;;;6.90;2.20;;;;;;;7.36;100.00;99542.91;4979861;28;20034;-62
2022/05/19 03:59:22;;;;;;;4.23;2.13;;;;;;;7.49;100.00;99538.75;4981319;28;20026;-62
2022/05/19 04:01:48;;;;;;;6.00;2.20;;;;;;;7.65;100.00;99540.59;4981324;28;20381;-63
2022/05/19 04:04:14;;;;;;;2.30;1.97;;;;;;;7.87;100.00;99545.00;4982546;28;20034;-64
2022/05/19 04:06:39;;;;;;;3.63;1.83;;;;;;;8.11;100.00;99534.91;4982127;28;20077;-61
2022/05/19 04:09:05;;;;;;;2.57;2.17;;;;;;;8.25;100.00;99533.28;4981583;28;20043;-64
2022/05/19 04:11:32;;;;;;;7.60;2.03;;;;;;;8.44;100.00;99530.88;4981539;28;20049;-64
2022/05/19 04:13:58;;;;;;;4.97;2.37;;;;;;;8.61;100.00;99532.59;4983837;28;20034;-63
2022/05/19 04:16:24;;;;;;;4.60;2.87;;;;;;;8.76;100.00;99533.50;4981022;28;20065;-64
2022/05/19 04:18:49;;;;;;;2.87;2.13;;;;;;;8.94;100.00;99531.88;4982154;28;20038;-63
2022/05/19 04:21:15;;;;;;;6.50;1.93;;;;;;;8.92;100.00;99531.00;4980879;28;20496;-63
2022/05/19 04:23:40;;;;;;;2.60;1.80;;;;;;;9.17;100.00;99535.28;4980578;28;20113;-62
2022/05/19 04:26:06;;;;;;;3.60;1.90;;;;;;;9.29;100.00;99534.47;4981980;28;20393;-62
2022/05/19 04:28:32;;;;;;;2.93;2.20;;;;;;;9.38;100.00;99524.22;4984898;28;20084;-62
2022/05/19 04:30:58;;;;;;;2.87;1.60;;;;;;;9.59;100.00;99531.03;4982174;28;20030;-61
2022/05/19 04:33:23;;;;;;;2.13;1.80;;;;;;;9.72;100.00;99531.91;4981660;28;20062;-62
2022/05/19 04:35:49;;;;;;;2.30;1.67;;;;;;;9.85;100.00;99525.88;4981860;28;20622;-62
2022/05/19 04:38:16;;;;;;;3.33;1.67;;;;;;;9.89;100.00;99522.47;4983004;28;20061;-63
2022/05/19 04:40:47;;;;;;;1.97;1.70;;;;;;;9.86;100.00;99522.47;4982420;28;20125;-63
2022/05/19 04:43:13;;;;;;;4.53;2.27;;;;;;;9.94;100.00;99531.00;4979821;28;20208;-63
2022/05/19 04:45:39;;;;;;;3.67;2.00;;;;;;;10.01;100.00;99533.53;4980729;28;20041;-63
2022/05/19 04:48:04;;;;;;;3.10;2.13;;;;;;;10.10;100.00;99524.97;4982136;28;20042;-62
2022/05/19 04:50:30;;;;;;;2.37;2.07;;;;;;;10.25;100.00;99536.94;4983036;28;20412;-63
2022/05/19 04:52:58;;;;;;;2.20;1.70;;;;;;;10.47;100.00;99534.28;4979683;28;20087;-66
2022/05/19 04:55:24;;;;;;;2.57;1.87;;;;;;;10.52;100.00;99529.16;4981791;28;20030;-65
2022/05/19 04:57:50;;;;;;;3.27;2.30;;;;;;;10.62;100.00;99525.66;4980326;28;20046;-60
2022/05/19 05:00:16;;;;;;;7.13;2.00;;;;;;;10.66;100.00;99522.22;4981354;28;20070;-61
2022/05/19 05:02:41;;;;;;;6.73;2.00;;;;;;;10.77;100.00;99525.59;4979675;28;20027;-61
2022/05/19 05:05:07;;;;;;;5.00;2.30;;;;;;;10.97;99.24;99521.19;4979565;28;20034;-66
2022/05/19 05:07:33;;;;;;;4.83;2.07;;;;;;;11.13;99.84;99523.66;4977935;28;20026;-64
2022/05/19 05:09:58;;;;;;;5.03;2.07;;;;;;;11.24;98.50;99522.72;4979727;28;20057;-65
2022/05/19 05:12:24;;;;;;;4.23;2.40;;;;;;;11.48;96.20;99521.69;4981968;28;20029;-64
2022/05/19 05:14:49;;;;;;;3.42;2.17;;;;;;;11.59;96.83;99521.56;4982469;28;20042;-65
2022/05/19 05:17:16;;;;;;;2.42;1.60;;;;;;;11.65;96.62;99527.53;4978868;28;20057;-65
2022/05/19 05:19:42;;;;;;;3.13;1.60;;;;;;;11.85;89.57;99524.78;4980983;28;20117;-65
2022/05/19 05:22:07;;;;;;;5.75;2.13;;;;;;;11.94;87.25;99514.41;4980550;28;20038;-64
2022/05/19 05:24:33;;;;;;;5.00;1.70;;;;;;;11.92;88.68;99523.88;4982710;28;20116;-65
2022/05/19 05:26:59;;;;;;;1.92;1.80;;;;;;;12.09;87.79;99522.00;4982633;28;20034;-65
2022/05/19 05:29:25;;;;;;;3.20;1.65;;;;;;;12.23;85.50;99520.09;4980558;28;20030;-65
2022/05/19 05:31:51;;;;;;;4.70;1.75;;;;;;;12.49;86.02;99521.50;4978950;28;20496;-65
2022/05/19 05:34:17;;;;;;;2.97;1.83;;;;;;;12.62;86.38;99521.34;4979566;28;20041;-64
2022/05/19 05:36:42;;;;;;;2.60;2.40;;;;;;;12.70;86.71;99528.94;5010283;28;20401;-63
2022/05/19 05:42:30;;;;;;;2.85;1.95;;;;;;;13.18;84.37;99523.16;4980369;28;20102;-62
2022/05/19 05:48:55;;;;;;;3.97;2.20;;;;;;;13.76;80.88;99523.91;4961416;28;20042;-61
2022/05/19 05:54:42;;;;;;;3.75;2.50;;;;;;;14.26;74.65;99517.84;4961373;28;20145;-61
2022/05/19 05:57:08;;;;;;;6.00;2.75;;;;;;;14.46;74.46;99516.59;4961596;28;20030;-61
2022/05/19 05:59:33;;;;;;;4.95;3.00;;;;;;;14.67;73.26;99520.44;4960501;28;20039;-61
2022/05/19 06:02:08;;;;;;;5.03;2.90;;;;;;;14.87;71.97;99522.59;4959398;28;20054;-61
2022/05/19 06:04:34;;;;;;;3.55;2.78;;;;;;;15.03;69.08;99517.06;4959992;28;20031;-61
2022/05/19 06:06:59;;;;;;;5.10;3.65;;;;;;;15.14;68.78;99521.97;4959831;28;20451;-61
2022/05/19 06:09:25;;;;;;;3.10;2.90;;;;;;;15.14;66.56;99518.56;4962906;28;20162;-61
2022/05/19 06:11:51;;;;;;;7.38;3.65;;;;;;;15.40;66.18;99522.19;4959414;28;20122;-62
2022/05/19 06:14:17;;;;;;;4.07;3.28;;;;;;;15.51;64.51;99522.84;4957416;28;20058;-62
2022/05/19 06:16:43;;;;;;;2.78;2.58;;;;;;;15.57;64.34;99524.44;4960385;28;20063;-61
2022/05/19 06:19:09;;;;;;;4.32;2.75;;;;;;;15.66;63.76;99519.00;4959688;28;20385;-60
2022/05/19 06:21:36;;;;;;;5.72;3.08;;;;;;;15.74;63.13;99518.81;4959699;28;20038;-60
2022/05/19 06:24:08;;;;;;;5.43;3.00;;;;;;;15.89;61.95;99524.44;4960973;28;20054;-60
2022/05/19 06:26:35;;;;;;;5.28;3.00;;;;;;;15.90;62.92;99522.72;4975799;28;20031;-63
2022/05/19 06:29:01;;;;;;;3.97;2.83;;;;;;;15.92;62.58;99518.31;4960510;28;20034;-61
2022/05/19 06:31:27;;;;;;;4.38;3.15;;;;;;;16.08;64.17;99519.66;4964229;28;20034;-61
2022/05/19 06:33:52;;;;;;;7.40;2.90;;;;;;;16.39;63.18;99510.13;4960544;28;20034;-61
2022/05/19 06:36:17;;;;;;;7.00;2.88;;;;;;;16.69;61.04;99517.94;4961572;28;20035;-62
2022/05/19 06:38:43;;;;;;;7.10;2.92;;;;;;;16.84;61.64;99512.31;4960223;28;20375;-61
2022/05/19 06:43:52;;;;;;;6.28;3.05;;;;;;;16.95;61.17;99499.88;4983260;28;20457;-62
2022/05/19 06:46:18;;;;;;;7.82;2.83;;;;;;;17.12;60.39;99513.16;4960735;28;20050;-61
2022/05/19 06:48:43;;;;;;;7.80;2.60;;;;;;;17.31;59.82;99509.06;4962325;28;20031;-61
2022/05/19 06:51:09;;;;;;;6.60;3.30;;;;;;;17.49;59.45;99506.75;4959538;28;20493;-62
2022/05/19 06:53:34;;;;;;;11.13;3.28;;;;;;;17.45;59.14;99505.16;4958155;28;20027;-61
2022/05/19 06:56:00;;;;;;;6.07;2.92;;;;;;;17.44;60.85;99504.31;4959765;28;20142;-61
2022/05/19 06:58:25;;;;;;;9.00;3.33;;;;;;;17.60;59.84;99502.13;4959940;28;20496;-61
2022/05/19 07:00:51;;;;;;;5.47;3.60;;;;;;;17.83;58.88;99511.69;4961674;28;20035;-61
2022/05/19 07:03:16;;;;;;;5.80;3.25;;;;;;;17.92;58.39;99506.19;4959319;28;20498;-61
2022/05/19 07:05:42;;;;;;;13.05;3.22;;;;;;;17.97;58.11;99512.94;4958609;28;20042;-61
2022/05/19 07:08:07;;;;;;;6.97;3.03;;;;;;;18.16;57.32;99513.97;4960743;28;20295;-61
2022/05/19 07:10:33;;;;;;;5.03;3.20;;;;;;;18.23;57.42;99499.88;4957810;28;20037;-61
2022/05/19 07:12:59;;;;;;;5.63;3.05;;;;;;;18.33;57.22;99496.97;4959980;28;20038;-61
2022/05/19 07:15:27;;;;;;;5.30;3.05;;;;;;;18.51;57.56;99489.31;4961720;28;20034;-60
2022/05/19 07:17:53;;;;;;;12.35;3.17;;;;;;;18.64;56.60;99497.53;4959390;28;20510;-61
2022/05/19 07:23:03;;;;;;;8.65;3.33;;;;;;;18.94;57.56;99485.13;4957330;28;20034;-61
2022/05/19 07:25:29;;;;;;;5.68;3.05;;;;;;;19.09;55.58;99481.94;4959427;28;20401;-61
2022/05/19 07:27:54;;;;;;;6.43;3.70;;;;;;;19.14;54.98;99483.41;4959801;28;20062;-61
2022/05/19 07:30:20;;;;;;;4.75;3.83;;;;;;;19.06;54.78;99474.22;4961058;28;20708;-61
2022/05/19 07:32:45;;;;;;;3.75;3.35;;;;;;;18.86;56.58;99476.78;4961144;28;20046;-61
2022/05/19 07:35:14;;;;;;;5.57;3.33;;;;;;;19.12;56.94;99472.25;4961967;28;20589;-61
2022/05/19 07:37:39;;;;;;;5.13;3.58;;;;;;;19.39;54.74;99464.25;4960170;28;20522;-61
2022/05/19 07:40:06;;;;;;;6.88;3.53;;;;;;;19.58;55.17;99466.03;4961481;28;20034;-61
2022/05/19 07:42:32;;;;;;;15.45;7.30;;;;;;;19.85;54.49;99470.97;4960460;28;20129;-60
2022/05/19 07:44:57;;;;;;;6.57;4.40;;;;;;;19.91;53.73;99463.72;4962693;28;20121;-59
2022/05/19 07:47:23;;;;;;;7.10;3.42;;;;;;;20.15;50.98;99463.56;4961866;28;20034;-60
2022/05/19 07:49:49;;;;;;;6.85;4.57;;;;;;;20.21;52.14;99468.50;4961199;28;20042;-58
2022/05/19 07:52:14;;;;;;;7.95;3.15;;;;;;;20.54;52.37;99461.78;4962242;28;20043;-61
2022/05/19 07:54:40;;;;;;;7.60;3.30;;;;;;;20.69;50.37;99462.84;4958060;28;20078;-60
2022/05/19 07:57:07;;;;;;;3.78;2.95;;;;;;;20.84;47.89;99462.13;4957684;28;20038;-60
2022/05/19 07:59:33;;;;;;;5.15;4.68;;;;;;;21.01;47.58;99469.97;4957271;28;20049;-59
2022/05/19 08:01:58;;;;;;;4.28;3.13;;;;;;;21.41;47.94;99463.69;4962296;28;20440;-59
2022/05/19 08:04:25;;;;;;;4.57;2.45;;;;;;;21.43;45.08;99467.06;4960774;28;20034;-60
2022/05/19 08:06:52;;;;;;;4.22;3.50;;;;;;;21.76;44.71;99468.00;4959259;28;20126;-59
2022/05/19 08:12:02;;;;;;;3.90;3.47;;;;;;;22.25;43.70;99460.22;4959148;28;20517;-59
2022/05/19 08:17:17;;;;;;;3.10;2.80;;;;;;;22.68;42.61;99466.59;4959123;28;20062;-60
2022/05/19 08:19:43;;;;;;;4.13;3.83;;;;;;;22.72;41.87;99460.31;4957425;28;20045;-60
2022/05/19 08:22:09;;;;;;;5.00;2.67;;;;;;;22.84;42.16;99459.63;4960782;28;20106;-58
2022/05/19 08:24:36;;;;;;;4.63;2.65;;;;;;;23.06;43.83;99452.25;4962897;28;20578;-65
2022/05/19 08:27:02;;;;;;;6.90;3.25;;;;;;;23.24;41.94;99450.38;4965323;28;20478;-63
2022/05/19 08:29:27;;;;;;;7.65;3.22;;;;;;;23.34;42.27;99448.91;4962982;28;20062;-65
2022/05/19 08:31:53;;;;;;;3.88;2.63;;;;;;;23.47;41.51;99454.28;4963565;28;20037;-61
2022/05/19 08:34:19;;;;;;;4.43;2.50;;;;;;;23.53;42.16;99456.56;4963764;28;20058;-61
2022/05/19 08:36:45;;;;;;;3.97;2.90;;;;;;;23.73;41.06;99448.38;4963376;28;20030;-61
2022/05/19 08:39:11;;;;;;;3.90;2.70;;;;;;;23.73;40.48;99452.75;4962861;28;20905;-62
2022/05/19 08:41:41;;;;;;;8.85;3.13;;;;;;;23.83;39.95;99452.13;4964626;28;20087;-62
2022/05/19 08:44:20;;;;;;;6.80;2.75;;;;;;;23.95;40.52;99448.78;4961553;28;20042;-60
2022/05/19 08:46:52;;;;;;;8.20;2.63;;;;;;;24.11;40.07;99438.19;4961888;28;20031;-62
2022/05/19 08:49:22;;;;;;;3.53;2.42;;;;;;;24.23;40.71;99445.31;4958846;28;20545;-61
2022/05/19 08:51:55;;;;;;;3.08;2.50;;;;;;;24.01;40.79;99437.09;4962673;28;20039;-61
2022/05/19 08:54:23;;;;;;;4.25;3.10;;;;;;;23.96;39.68;99437.38;4962444;28;20126;-61
2022/05/19 08:57:00;;;;;;;5.05;2.80;;;;;;;24.08;39.82;99436.59;4961701;28;20039;-62
2022/05/19 08:59:44;;;;;;;4.88;2.90;;;;;;;24.16;40.90;99443.19;4960728;28;20141;-62
2022/05/19 09:02:15;;;;;;;5.03;2.80;;;;;;;24.29;39.29;99434.47;4959889;28;20061;-62
2022/05/19 09:05:07;;;;;;;5.63;2.80;;;;;;;24.23;39.15;99436.66;4960425;28;20270;-60
2022/05/19 09:07:56;;;;;;;6.05;3.13;;;;;;;24.21;39.19;99436.72;4963324;28;20062;-65
2022/05/19 09:10:42;;;;;;;6.00;2.85;;;;;;;24.25;39.50;99440.84;4962872;28;20038;-64
2022/05/19 09:13:16;;;;;;;4.50;2.80;;;;;;;24.16;39.46;99436.16;4961268;28;20210;-64
2022/05/19 09:15:44;;;;;;;3.35;2.80;;;;;;;24.03;38.98;99428.19;4960406;28;20039;-65
2022/05/19 09:18:13;;;;;;;4.10;2.90;;;;;;;24.14;39.57;99423.13;4962095;28;20073;-65
2022/05/19 09:20:45;;;;;;;5.93;2.97;;;;;;;24.28;40.00;99421.44;4963937;28;20118;-63
2022/05/19 09:23:11;;;;;;;3.10;2.75;;;;;;;24.53;40.12;99421.59;4976682;28;20419;-64
2022/05/19 09:25:43;;;;;;;3.05;2.45;;;;;;;24.59;39.23;99415.97;4962247;28;20035;-66
2022/05/19 09:28:12;;;;;;;5.70;2.72;;;;;;;24.73;39.30;99420.34;4962891;28;20613;-66
2022/05/19 09:30:46;;;;;;;4.75;2.72;;;;;;;24.74;39.92;99422.03;4962637;28;20285;-65
2022/05/19 09:33:37;;;;;;;4.70;2.83;;;;;;;24.85;38.89;99411.69;4961231;28;20046;-64
2022/05/19 09:36:11;;;;;;;4.18;2.95;;;;;;;24.82;38.63;99404.88;4962401;28;20078;-65
2022/05/19 09:38:44;;;;;;;4.03;2.60;;;;;;;25.01;39.20;99412.38;4961533;28;20193;-66
2022/05/19 09:41:34;;;;;;;4.85;3.33;;;;;;;25.04;40.60;99414.00;4961342;28;20122;-65
2022/05/19 09:44:03;;;;;;;3.58;2.40;;;;;;;25.23;39.47;99415.28;4957057;28;20568;-62
2022/05/19 09:46:44;;;;;;;4.50;2.88;;;;;;;25.22;39.30;99412.75;4961354;28;20026;-63
2022/05/19 09:49:30;;;;;;;6.35;3.05;;;;;;;25.14;40.43;99408.03;4963283;28;20081;-64
2022/05/19 09:52:01;;;;;;;4.03;3.50;;;;;;;25.45;40.45;99410.28;4963016;28;20049;-65
2022/05/19 09:54:31;;;;;;;6.07;2.95;;;;;;;25.29;38.77;99404.38;4960871;28;20037;-63
2022/05/19 09:57:04;;;;;;;5.90;3.00;;;;;;;25.51;39.82;99410.78;4957790;28;20027;-64
2022/05/19 09:59:40;;;;;;;6.93;2.73;;;;;;;25.27;39.36;99405.41;4958410;28;20462;-64
2022/05/19 10:02:24;;;;;;;5.22;2.90;;;;;;;25.13;39.63;99402.84;4959507;28;20494;-64
2022/05/19 10:04:53;;;;;;;6.05;3.67;;;;;;;25.27;40.61;99406.25;4962033;28;20038;-64
2022/05/19 10:07:42;;;;;;;10.68;3.10;;;;;;;25.55;39.64;99394.75;4962436;28;20039;-63
2022/05/19 10:10:26;;;;;;;8.00;3.60;;;;;;;25.67;39.16;99396.59;4959760;28;20074;-64
2022/05/19 10:12:58;;;;;;;10.15;3.38;;;;;;;25.78;39.59;99398.44;4958967;28;20106;-65
2022/05/19 10:33:16;;;;;;;4.93;3.03;;;;;;;25.54;39.14;99379.97;4949371;28;20255;-67
2022/05/19 10:35:50;;;;;;;4.28;3.35;;;;;;;25.76;39.62;99369.66;4961948;28;20050;-67
2022/05/19 10:38:21;;;;;;;7.33;3.30;;;;;;;25.65;38.73;99379.22;4960548;28;20038;-67
2022/05/19 10:41:24;;;;;;;4.63;2.95;;;;;;;25.84;39.73;99371.78;4960465;28;20281;-67
2022/05/19 10:44:28;;;;;;;8.00;3.58;;;;;;;25.90;38.23;99366.91;4959899;28;20043;-66
2022/05/19 10:47:15;;;;;;;6.43;3.00;;;;;;;26.05;40.57;99364.16;4963347;28;20410;-63
2022/05/19 10:50:06;;;;;;;8.85;2.80;;;;;;;26.01;37.78;99360.06;4961960;28;20153;-68
2022/05/19 10:52:37;;;;;;;12.85;3.58;;;;;;;25.97;38.23;99351.53;4958258;28;20548;-68
2022/05/19 10:55:13;;;;;;;5.63;3.10;;;;;;;26.25;39.59;99366.25;4959452;28;20034;-68
2022/05/19 10:57:58;;;;;;;5.35;3.33;;;;;;;26.59;39.49;99357.59;4958907;28;20572;-68
2022/05/19 11:00:39;;;;;;;3.13;2.90;;;;;;;26.77;38.12;99358.06;4958781;28;20357;-67
2022/05/19 11:03:32;;;;;;;3.35;2.85;;;;;;;26.79;37.48;99361.38;4960949;28;20434;-67
2022/05/19 11:06:09;;;;;;;6.15;3.67;;;;;;;26.68;39.33;99354.31;4960796;28;20170;-67
2022/05/19 11:08:44;;;;;;;3.58;3.28;;;;;;;26.51;38.27;99341.53;4958228;28;20134;-66
2022/05/19 11:11:24;;;;;;;7.07;3.70;;;;;;;26.67;39.62;99349.16;4958594;28;20346;-67
2022/05/19 11:14:13;;;;;;;5.47;3.20;;;;;;;26.70;38.67;99344.50;4957835;28;20093;-66
2022/05/19 11:16:47;;;;;;;6.10;4.03;;;;;;;26.87;39.01;99343.28;4961444;28;20133;-67
2022/05/19 11:19:20;;;;;;;3.28;2.97;;;;;;;26.65;37.05;99333.47;4959357;28;20065;-68
2022/05/19 11:22:09;;;;;;;3.97;3.67;;;;;;;26.79;37.24;99335.06;4960631;28;20045;-69
2022/05/19 11:26:23;;;;;;;4.70;4.30;;;;;;;26.87;37.59;99334.53;4958116;28;20039;-65
2022/05/19 11:27:34;;;;;;;5.97;3.83;;;;;;;26.98;37.47;99332.81;4956879;28;20038;-60
2022/05/19 11:30:04;;;;;;;4.50;3.00;;;;;;;26.80;37.22;99319.19;4960212;28;20070;-69
2022/05/19 11:32:35;;;;;;;4.13;3.75;;;;;;;26.85;36.81;99323.28;4961440;28;20085;-61
2022/05/19 11:35:24;;;;;;;3.95;3.65;;;;;;;26.98;37.02;99319.63;4957798;28;20062;-65
2022/05/19 11:38:18;;;;;;;3.97;3.58;;;;;;;27.19;38.42;99320.66;4959780;28;20038;-66
2022/05/19 11:41:08;;;;;;;4.00;3.55;;;;;;;27.40;36.80;99320.78;4959456;28;20039;-66
2022/05/19 11:43:52;;;;;;;5.00;3.80;;;;;;;27.52;37.25;99322.50;4960377;28;20027;-65
2022/05/19 11:46:22;;;;;;;4.68;3.60;;;;;;;27.16;36.50;99312.97;4960675;28;20073;-65
2022/05/19 11:55:17;;;;;;;6.05;3.70;;;;;;;27.53;35.93;99300.50;4958992;28;20458;-63
2022/05/19 11:57:52;;;;;;;4.68;2.78;;;;;;;27.47;35.60;99294.81;4963376;28;20121;-66
2022/05/19 12:00:32;;;;;;;7.05;3.97;;;;;;;27.31;35.45;99296.97;4962024;28;20577;-64
2022/05/19 12:03:18;;;;;;;4.63;3.47;;;;;;;27.62;35.92;99286.59;4962811;28;20043;-65
2022/05/19 12:05:53;;;;;;;4.50;4.10;;;;;;;27.80;36.15;99291.34;4963818;28;20086;-64
2022/05/19 12:08:23;;;;;;;4.13;3.70;;;;;;;27.96;35.60;99283.94;4964740;28;20153;-70
2022/05/19 12:10:56;;;;;;;13.35;3.70;;;;;;;28.04;34.78;99281.50;4961410;28;20459;-65
2022/05/19 12:13:32;;;;;;;8.60;3.72;;;;;;;28.14;34.66;99285.94;4961882;28;20031;-68
2022/05/19 12:16:14;;;;;;;11.63;3.72;;;;;;;27.94;36.01;99283.19;4961309;28;20420;-68
2022/05/19 12:18:44;;;;;;;3.88;3.65;;;;;;;28.04;35.33;99287.63;4962109;28;20415;-66
2022/05/19 12:21:31;;;;;;;3.55;3.25;;;;;;;27.99;34.55;99281.03;4992774;28;20049;-67
2022/05/19 12:24:02;;;;;;;5.97;4.25;;;;;;;28.12;33.79;99272.06;4960880;28;20230;-65
2022/05/19 12:26:37;;;;;;;5.20;3.40;;;;;;;28.19;33.71;99275.03;4963506;28;20045;-67
2022/05/19 12:29:02;;;;;;;;;;;;;;;27.95;34.21;99272.53;4962166;28;20473;-67
2022/05/19 12:31:59;;;;;;;5.95;3.78;;;;;;;27.85;34.62;99278.66;4960180;28;19929;-67
2022/05/19 12:34:42;;;;;;;4.40;2.90;;;;;;;28.11;34.66;99280.91;4963090;28;20452;-67
2022/05/19 12:37:13;;;;;;;5.38;3.42;;;;;;;28.07;33.96;99274.19;4963026;28;20043;-66